sensor_id;sensor_type;location;lat;lon;timestamp;pressure;altitude;pressure_sealevel;temperature;humidity
33454;BME280;39400;49.744;7.012;2023-07-08T00:01:10;96015.28;;;26.24;32.68
33454;BME280;39400;49.744;7.012;2023-07-08T00:03:36;96021.31;;;26.37;32.93
33454;BME280;39400;49.744;7.012;2023-07-08T00:06:01;96018.19;;;26.55;32.64
33454;BME280;39400;49.744;7.012;2023-07-08T00:08:26;96012.00;;;26.51;33.35
33454;BME280;39400;49.744;7.012;2023-07-08T00:10:52;96010.53;;;26.93;32.94
33454;BME280;39400;49.744;7.012;2023-07-08T00:13:17;96001.50;;;26.31;34.12
33454;BME280;39400;49.744;7.012;2023-07-08T00:15:42;95991.16;;;25.97;35.04
33454;BME280;39400;49.744;7.012;2023-07-08T00:18:16;95991.38;;;25.93;35.65
33454;BME280;39400;49.744;7.012;2023-07-08T00:20:44;95996.44;;;25.89;35.78
33454;BME280;39400;49.744;7.012;2023-07-08T00:23:09;95989.28;;;25.88;36.45
33454;BME280;39400;49.744;7.012;2023-07-08T00:25:35;95990.06;;;26.15;36.05
33454;BME280;39400;49.744;7.012;2023-07-08T00:28:00;95981.44;;;26.24;35.97
33454;BME280;39400;49.744;7.012;2023-07-08T00:30:28;95977.97;;;26.08;36.46
33454;BME280;39400;49.744;7.012;2023-07-08T00:32:55;95986.72;;;25.49;37.53
33454;BME280;39400;49.744;7.012;2023-07-08T00:37:46;95979.13;;;25.55;37.22
33454;BME280;39400;49.744;7.012;2023-07-08T00:40:20;95977.81;;;25.77;36.80
33454;BME280;39400;49.744;7.012;2023-07-08T00:42:46;95977.47;;;26.10;36.35
33454;BME280;39400;49.744;7.012;2023-07-08T00:45:21;95980.34;;;26.16;35.87
33454;BME280;39400;49.744;7.012;2023-07-08T00:47:47;95976.44;;;25.87;36.63
33454;BME280;39400;49.744;7.012;2023-07-08T00:50:13;95967.50;;;26.15;36.30
33454;BME280;39400;49.744;7.012;2023-07-08T00:52:40;95977.78;;;25.92;37.14
33454;BME280;39400;49.744;7.012;2023-07-08T00:55:08;95971.97;;;26.01;36.74
33454;BME280;39400;49.744;7.012;2023-07-08T00:57:38;95969.16;;;26.01;36.77
33454;BME280;39400;49.744;7.012;2023-07-08T01:00:07;95963.66;;;26.12;36.44
33454;BME280;39400;49.744;7.012;2023-07-08T01:02:36;95962.56;;;26.30;36.46
33454;BME280;39400;49.744;7.012;2023-07-08T01:05:06;95957.13;;;26.00;37.10
33454;BME280;39400;49.744;7.012;2023-07-08T01:07:34;95972.16;;;26.18;37.13
33454;BME280;39400;49.744;7.012;2023-07-08T01:10:06;95959.28;;;26.11;36.99
33454;BME280;39400;49.744;7.012;2023-07-08T01:12:39;95966.41;;;26.06;37.09
33454;BME280;39400;49.744;7.012;2023-07-08T01:15:08;95970.50;;;26.05;36.89
33454;BME280;39400;49.744;7.012;2023-07-08T01:17:34;95969.53;;;26.08;37.20
33454;BME280;39400;49.744;7.012;2023-07-08T01:20:02;95966.84;;;25.99;36.99
33454;BME280;39400;49.744;7.012;2023-07-08T01:22:28;95956.78;;;25.93;37.46
33454;BME280;39400;49.744;7.012;2023-07-08T01:24:54;95960.94;;;25.97;37.37
33454;BME280;39400;49.744;7.012;2023-07-08T01:27:19;95951.72;;;26.23;36.73
33454;BME280;39400;49.744;7.012;2023-07-08T01:29:46;95947.94;;;26.31;36.64
33454;BME280;39400;49.744;7.012;2023-07-08T01:32:13;95956.97;;;26.09;36.08
33454;BME280;39400;49.744;7.012;2023-07-08T01:34:40;95959.69;;;25.98;36.54
33454;BME280;39400;49.744;7.012;2023-07-08T01:37:06;95946.34;;;25.99;36.45
33454;BME280;39400;49.744;7.012;2023-07-08T01:39:34;95952.22;;;26.21;36.26
33454;BME280;39400;49.744;7.012;2023-07-08T01:42:00;95955.03;;;25.95;36.72
33454;BME280;39400;49.744;7.012;2023-07-08T01:46:55;95948.97;;;26.02;36.95
33454;BME280;39400;49.744;7.012;2023-07-08T01:49:21;95955.91;;;26.33;36.23
33454;BME280;39400;49.744;7.012;2023-07-08T01:51:49;95949.06;;;26.14;36.37
33454;BME280;39400;49.744;7.012;2023-07-08T01:54:15;95958.25;;;26.08;36.39
33454;BME280;39400;49.744;7.012;2023-07-08T01:56:40;95949.94;;;25.99;36.24
33454;BME280;39400;49.744;7.012;2023-07-08T01:59:06;95947.56;;;25.92;35.99
33454;BME280;39400;49.744;7.012;2023-07-08T02:01:31;95946.63;;;26.01;35.86
33454;BME280;39400;49.744;7.012;2023-07-08T02:03:56;95945.84;;;26.26;35.36
33454;BME280;39400;49.744;7.012;2023-07-08T02:06:22;95942.78;;;25.98;35.39
33454;BME280;39400;49.744;7.012;2023-07-08T02:08:47;95942.38;;;26.11;34.92
33454;BME280;39400;49.744;7.012;2023-07-08T02:11:12;95938.69;;;25.99;35.04
33454;BME280;39400;49.744;7.012;2023-07-08T02:13:37;95933.09;;;26.05;34.86
33454;BME280;39400;49.744;7.012;2023-07-08T02:16:03;95915.81;;;25.92;35.13
33454;BME280;39400;49.744;7.012;2023-07-08T02:18:28;95942.41;;;25.91;35.25
33454;BME280;39400;49.744;7.012;2023-07-08T02:20:53;95941.25;;;26.29;34.62
33454;BME280;39400;49.744;7.012;2023-07-08T02:23:19;95941.00;;;26.27;34.39
33454;BME280;39400;49.744;7.012;2023-07-08T02:25:54;95942.31;;;26.31;34.20
33454;BME280;39400;49.744;7.012;2023-07-08T02:28:20;95932.94;;;25.88;34.84
33454;BME280;39400;49.744;7.012;2023-07-08T02:30:46;95924.31;;;25.77;35.28
33454;BME280;39400;49.744;7.012;2023-07-08T02:33:11;95933.59;;;26.03;34.87
33454;BME280;39400;49.744;7.012;2023-07-08T02:35:37;95940.66;;;25.93;34.83
33454;BME280;39400;49.744;7.012;2023-07-08T02:38:02;95934.91;;;25.82;34.98
33454;BME280;39400;49.744;7.012;2023-07-08T02:40:27;95935.03;;;25.93;35.38
33454;BME280;39400;49.744;7.012;2023-07-08T02:42:53;95940.94;;;25.75;35.40
33454;BME280;39400;49.744;7.012;2023-07-08T02:45:18;95937.06;;;25.93;34.80
33454;BME280;39400;49.744;7.012;2023-07-08T02:47:44;95946.28;;;25.73;35.13
33454;BME280;39400;49.744;7.012;2023-07-08T02:50:10;95937.56;;;25.91;35.21
33454;BME280;39400;49.744;7.012;2023-07-08T02:52:36;95944.75;;;25.92;35.20
33454;BME280;39400;49.744;7.012;2023-07-08T02:55:02;95943.38;;;26.08;34.79
33454;BME280;39400;49.744;7.012;2023-07-08T02:57:27;95953.41;;;26.15;34.74
33454;BME280;39400;49.744;7.012;2023-07-08T02:59:52;95951.66;;;25.91;35.29
33454;BME280;39400;49.744;7.012;2023-07-08T03:02:18;95949.16;;;26.25;34.49
33454;BME280;39400;49.744;7.012;2023-07-08T03:04:44;95952.75;;;25.99;35.25
33454;BME280;39400;49.744;7.012;2023-07-08T03:07:10;95950.50;;;26.29;34.52
33454;BME280;39400;49.744;7.012;2023-07-08T03:09:36;95949.16;;;26.25;34.46
33454;BME280;39400;49.744;7.012;2023-07-08T03:12:01;95958.72;;;26.59;34.17
33454;BME280;39400;49.744;7.012;2023-07-08T03:14:26;95966.53;;;26.18;34.87
33454;BME280;39400;49.744;7.012;2023-07-08T03:16:52;95963.66;;;26.12;34.93
33454;BME280;39400;49.744;7.012;2023-07-08T03:19:17;95960.13;;;26.17;34.86
33454;BME280;39400;49.744;7.012;2023-07-08T03:21:43;95974.13;;;25.85;35.57
33454;BME280;39400;49.744;7.012;2023-07-08T03:24:11;95978.00;;;25.88;34.92
33454;BME280;39400;49.744;7.012;2023-07-08T03:26:39;95983.50;;;26.23;34.84
33454;BME280;39400;49.744;7.012;2023-07-08T03:29:08;95992.13;;;26.40;34.60
33454;BME280;39400;49.744;7.012;2023-07-08T03:31:38;95992.38;;;26.42;34.69
33454;BME280;39400;49.744;7.012;2023-07-08T03:34:03;95989.91;;;25.77;35.45
33454;BME280;39400;49.744;7.012;2023-07-08T03:36:28;95993.75;;;25.59;35.78
33454;BME280;39400;49.744;7.012;2023-07-08T03:38:56;95991.06;;;25.30;36.47
33454;BME280;39400;49.744;7.012;2023-07-08T03:41:22;95993.06;;;25.65;35.98
33454;BME280;39400;49.744;7.012;2023-07-08T03:43:49;95997.41;;;25.66;36.10
33454;BME280;39400;49.744;7.012;2023-07-08T03:46:15;96001.53;;;24.35;38.36
33454;BME280;39400;49.744;7.012;2023-07-08T03:48:40;96008.41;;;24.34;38.49
33454;BME280;39400;49.744;7.012;2023-07-08T03:51:18;95997.81;;;23.99;39.65
33454;BME280;39400;49.744;7.012;2023-07-08T03:53:45;95999.63;;;25.21;37.56
33454;BME280;39400;49.744;7.012;2023-07-08T03:56:12;96000.34;;;25.16;37.79
33454;BME280;39400;49.744;7.012;2023-07-08T03:58:37;96011.78;;;25.47;37.12
33454;BME280;39400;49.744;7.012;2023-07-08T04:01:03;96011.28;;;25.49;37.30
33454;BME280;39400;49.744;7.012;2023-07-08T04:03:28;96001.84;;;25.72;36.91
33454;BME280;39400;49.744;7.012;2023-07-08T04:05:54;95996.88;;;25.82;37.01
33454;BME280;39400;49.744;7.012;2023-07-08T04:08:19;96004.75;;;25.98;36.30
33454;BME280;39400;49.744;7.012;2023-07-08T04:10:44;96002.09;;;25.89;36.87
33454;BME280;39400;49.744;7.012;2023-07-08T04:13:10;96003.47;;;25.38;37.62
33454;BME280;39400;49.744;7.012;2023-07-08T04:15:35;96001.50;;;25.44;37.65
33454;BME280;39400;49.744;7.012;2023-07-08T04:18:00;95999.69;;;25.61;37.35
33454;BME280;39400;49.744;7.012;2023-07-08T04:20:25;95991.88;;;25.01;38.52
33454;BME280;39400;49.744;7.012;2023-07-08T04:22:51;95986.34;;;25.21;38.15
33454;BME280;39400;49.744;7.012;2023-07-08T04:25:17;95984.97;;;24.22;39.94
33454;BME280;39400;49.744;7.012;2023-07-08T04:27:43;95979.38;;;24.66;39.04
33454;BME280;39400;49.744;7.012;2023-07-08T04:30:21;95980.41;;;24.10;40.21
33454;BME280;39400;49.744;7.012;2023-07-08T04:32:47;95989.81;;;24.22;40.03
33454;BME280;39400;49.744;7.012;2023-07-08T04:35:12;95994.66;;;24.36;39.81
33454;BME280;39400;49.744;7.012;2023-07-08T04:37:38;95989.63;;;24.70;39.22
33454;BME280;39400;49.744;7.012;2023-07-08T04:40:03;95990.34;;;25.14;38.36
33454;BME280;39400;49.744;7.012;2023-07-08T04:42:29;95995.16;;;25.49;37.97
33454;BME280;39400;49.744;7.012;2023-07-08T04:44:54;95991.53;;;25.64;37.86
33454;BME280;39400;49.744;7.012;2023-07-08T04:47:19;95993.50;;;25.57;37.94
33454;BME280;39400;49.744;7.012;2023-07-08T04:49:44;95997.16;;;25.64;38.00
33454;BME280;39400;49.744;7.012;2023-07-08T04:52:10;95994.31;;;24.43;39.87
33454;BME280;39400;49.744;7.012;2023-07-08T04:54:35;95993.03;;;23.76;40.87
33454;BME280;39400;49.744;7.012;2023-07-08T04:57:00;95994.59;;;23.77;41.10
33454;BME280;39400;49.744;7.012;2023-07-08T04:59:26;96002.78;;;24.04;40.61
33454;BME280;39400;49.744;7.012;2023-07-08T05:01:52;96005.84;;;23.91;41.25
33454;BME280;39400;49.744;7.012;2023-07-08T05:04:19;95994.22;;;23.36;42.20
33454;BME280;39400;49.744;7.012;2023-07-08T05:06:46;96011.50;;;23.67;41.61
33454;BME280;39400;49.744;7.012;2023-07-08T05:09:11;96008.25;;;23.60;41.41
33454;BME280;39400;49.744;7.012;2023-07-08T05:11:37;96018.13;;;24.33;40.34
33454;BME280;39400;49.744;7.012;2023-07-08T05:14:03;96015.22;;;23.73;41.87
33454;BME280;39400;49.744;7.012;2023-07-08T05:16:28;96002.16;;;24.54;40.05
33454;BME280;39400;49.744;7.012;2023-07-08T05:18:54;96000.97;;;24.75;39.91
33454;BME280;39400;49.744;7.012;2023-07-08T05:21:20;96000.47;;;24.91;39.98
33454;BME280;39400;49.744;7.012;2023-07-08T05:23:48;96011.00;;;25.47;39.12
33454;BME280;39400;49.744;7.012;2023-07-08T05:26:14;96009.91;;;25.24;40.27
33454;BME280;39400;49.744;7.012;2023-07-08T05:28:39;96016.38;;;25.65;39.02
33454;BME280;39400;49.744;7.012;2023-07-08T05:31:04;96009.22;;;24.64;41.16
33454;BME280;39400;49.744;7.012;2023-07-08T05:33:30;96016.47;;;25.15;40.15
33454;BME280;39400;49.744;7.012;2023-07-08T05:35:55;96012.38;;;25.01;40.45
33454;BME280;39400;49.744;7.012;2023-07-08T05:38:21;96012.13;;;24.40;40.74
33454;BME280;39400;49.744;7.012;2023-07-08T05:40:53;96003.00;;;24.75;40.69
33454;BME280;39400;49.744;7.012;2023-07-08T05:43:19;96012.16;;;25.20;40.37
33454;BME280;39400;49.744;7.012;2023-07-08T05:45:45;96011.88;;;25.03;40.80
33454;BME280;39400;49.744;7.012;2023-07-08T05:48:11;96012.66;;;25.03;41.53
33454;BME280;39400;49.744;7.012;2023-07-08T05:50:36;96005.44;;;25.73;40.52
33454;BME280;39400;49.744;7.012;2023-07-08T05:53:02;96002.66;;;25.93;40.83
33454;BME280;39400;49.744;7.012;2023-07-08T05:55:27;96013.75;;;26.23;39.90
33454;BME280;39400;49.744;7.012;2023-07-08T05:57:53;96012.47;;;25.62;39.54
33454;BME280;39400;49.744;7.012;2023-07-08T06:00:18;96016.56;;;25.61;40.03
33454;BME280;39400;49.744;7.012;2023-07-08T06:02:43;95994.91;;;25.88;39.66
33454;BME280;39400;49.744;7.012;2023-07-08T06:05:09;96008.09;;;26.23;39.69
33454;BME280;39400;49.744;7.012;2023-07-08T06:07:34;96019.69;;;26.83;39.73
33454;BME280;39400;49.744;7.012;2023-07-08T06:09:59;96011.78;;;27.18;39.92
33454;BME280;39400;49.744;7.012;2023-07-08T06:12:25;96024.72;;;27.04;39.29
33454;BME280;39400;49.744;7.012;2023-07-08T06:14:50;96016.47;;;26.95;38.38
33454;BME280;39400;49.744;7.012;2023-07-08T06:17:17;96022.19;;;27.07;39.83
33454;BME280;39400;49.744;7.012;2023-07-08T06:19:43;96029.56;;;27.30;38.30
33454;BME280;39400;49.744;7.012;2023-07-08T06:22:08;96030.69;;;27.49;37.12
33454;BME280;39400;49.744;7.012;2023-07-08T06:24:34;96038.53;;;26.97;37.19
33454;BME280;39400;49.744;7.012;2023-07-08T06:26:59;96036.28;;;27.38;37.00
33454;BME280;39400;49.744;7.012;2023-07-08T06:29:25;96041.69;;;27.42;36.96
33454;BME280;39400;49.744;7.012;2023-07-08T06:31:50;96047.94;;;27.52;36.72
33454;BME280;39400;49.744;7.012;2023-07-08T06:34:15;96052.09;;;27.67;37.40
33454;BME280;39400;49.744;7.012;2023-07-08T06:36:41;96068.09;;;27.33;37.07
33454;BME280;39400;49.744;7.012;2023-07-08T06:39:06;96067.75;;;27.63;37.12
33454;BME280;39400;49.744;7.012;2023-07-08T06:41:31;96074.59;;;27.82;36.93
33454;BME280;39400;49.744;7.012;2023-07-08T06:43:57;96073.06;;;27.49;36.93
33454;BME280;39400;49.744;7.012;2023-07-08T06:46:26;96085.41;;;27.52;36.74
33454;BME280;39400;49.744;7.012;2023-07-08T06:48:51;96097.72;;;27.86;36.38
33454;BME280;39400;49.744;7.012;2023-07-08T06:51:16;96091.31;;;28.46;35.24
33454;BME280;39400;49.744;7.012;2023-07-08T06:53:41;96094.09;;;27.80;36.58
33454;BME280;39400;49.744;7.012;2023-07-08T06:56:07;96115.31;;;28.07;36.80
33454;BME280;39400;49.744;7.012;2023-07-08T06:58:32;96112.19;;;28.00;36.10
33454;BME280;39400;49.744;7.012;2023-07-08T07:00:57;96096.47;;;27.56;36.73
33454;BME280;39400;49.744;7.012;2023-07-08T07:03:23;96101.84;;;27.85;36.40
33454;BME280;39400;49.744;7.012;2023-07-08T07:05:48;96105.34;;;27.37;36.83
33454;BME280;39400;49.744;7.012;2023-07-08T07:08:14;96112.78;;;27.72;36.48
33454;BME280;39400;49.744;7.012;2023-07-08T07:10:39;96094.97;;;28.03;37.17
33454;BME280;39400;49.744;7.012;2023-07-08T07:13:04;96098.97;;;27.80;36.79
33454;BME280;39400;49.744;7.012;2023-07-08T07:15:30;96102.13;;;27.93;37.01
33454;BME280;39400;49.744;7.012;2023-07-08T07:17:56;96103.75;;;27.68;36.82
33454;BME280;39400;49.744;7.012;2023-07-08T07:20:21;96114.50;;;27.00;38.96
33454;BME280;39400;49.744;7.012;2023-07-08T07:22:46;96112.06;;;27.45;38.63
33454;BME280;39400;49.744;7.012;2023-07-08T07:25:12;96117.50;;;27.17;38.92
33454;BME280;39400;49.744;7.012;2023-07-08T07:27:37;96116.84;;;27.02;39.19
33454;BME280;39400;49.744;7.012;2023-07-08T07:30:02;96121.19;;;27.29;38.46
33454;BME280;39400;49.744;7.012;2023-07-08T07:32:28;96122.00;;;27.35;38.58
33454;BME280;39400;49.744;7.012;2023-07-08T07:34:53;96123.88;;;27.81;38.46
33454;BME280;39400;49.744;7.012;2023-07-08T07:37:20;96122.97;;;27.58;39.27
33454;BME280;39400;49.744;7.012;2023-07-08T07:39:46;96125.69;;;27.79;38.70
33454;BME280;39400;49.744;7.012;2023-07-08T07:42:13;96138.59;;;27.91;39.44
33454;BME280;39400;49.744;7.012;2023-07-08T07:44:39;96130.97;;;27.71;39.32
33454;BME280;39400;49.744;7.012;2023-07-08T07:47:04;96132.63;;;27.46;39.73
33454;BME280;39400;49.744;7.012;2023-07-08T07:49:30;96136.53;;;27.91;39.73
33454;BME280;39400;49.744;7.012;2023-07-08T07:51:55;96125.34;;;27.71;40.27
33454;BME280;39400;49.744;7.012;2023-07-08T07:54:21;96122.41;;;27.91;39.93
33454;BME280;39400;49.744;7.012;2023-07-08T07:56:46;96112.91;;;27.89;39.60
33454;BME280;39400;49.744;7.012;2023-07-08T07:59:11;96133.78;;;28.03;39.87
33454;BME280;39400;49.744;7.012;2023-07-08T08:01:37;96131.91;;;27.57;40.70
33454;BME280;39400;49.744;7.012;2023-07-08T08:04:02;96140.59;;;27.85;40.98
33454;BME280;39400;49.744;7.012;2023-07-08T08:06:28;96141.94;;;27.95;41.41
33454;BME280;39400;49.744;7.012;2023-07-08T08:08:53;96136.88;;;28.05;40.21
33454;BME280;39400;49.744;7.012;2023-07-08T08:11:18;96131.84;;;28.31;40.34
33454;BME280;39400;49.744;7.012;2023-07-08T08:13:43;96137.69;;;28.11;40.25
33454;BME280;39400;49.744;7.012;2023-07-08T08:16:09;96133.56;;;27.69;41.93
33454;BME280;39400;49.744;7.012;2023-07-08T08:18:34;96135.97;;;28.36;40.70
33454;BME280;39400;49.744;7.012;2023-07-08T08:21:00;96134.94;;;28.33;41.95
33454;BME280;39400;49.744;7.012;2023-07-08T08:23:25;96135.28;;;28.41;40.97
33454;BME280;39400;49.744;7.012;2023-07-08T08:25:51;96134.66;;;28.26;41.20
33454;BME280;39400;49.744;7.012;2023-07-08T08:28:16;96139.06;;;28.32;40.92
33454;BME280;39400;49.744;7.012;2023-07-08T08:30:47;96120.44;;;28.09;41.34
33454;BME280;39400;49.744;7.012;2023-07-08T08:33:12;96135.31;;;28.04;42.50
33454;BME280;39400;49.744;7.012;2023-07-08T08:35:37;96140.78;;;28.13;42.09
33454;BME280;39400;49.744;7.012;2023-07-08T08:38:03;96147.16;;;28.56;42.22
33454;BME280;39400;49.744;7.012;2023-07-08T08:40:29;96136.59;;;28.57;42.21
33454;BME280;39400;49.744;7.012;2023-07-08T08:43:02;96143.56;;;28.67;42.13
33454;BME280;39400;49.744;7.012;2023-07-08T08:45:32;96138.16;;;28.58;42.38
33454;BME280;39400;49.744;7.012;2023-07-08T08:48:02;96139.00;;;28.92;42.39
33454;BME280;39400;49.744;7.012;2023-07-08T08:53:14;96143.63;;;28.84;42.30
33454;BME280;39400;49.744;7.012;2023-07-08T08:55:40;96136.06;;;28.53;42.55
33454;BME280;39400;49.744;7.012;2023-07-08T09:00:45;96134.09;;;28.81;43.11
33454;BME280;39400;49.744;7.012;2023-07-08T09:03:15;96130.84;;;29.17;43.20
33454;BME280;39400;49.744;7.012;2023-07-08T09:05:43;96125.41;;;29.13;42.70
33454;BME280;39400;49.744;7.012;2023-07-08T09:08:17;96126.44;;;29.32;42.75
33454;BME280;39400;49.744;7.012;2023-07-08T09:11:09;96124.38;;;29.83;41.45
33454;BME280;39400;49.744;7.012;2023-07-08T09:13:37;96124.63;;;29.01;42.36
33454;BME280;39400;49.744;7.012;2023-07-08T09:26:56;96115.03;;;28.76;44.26
33454;BME280;39400;49.744;7.012;2023-07-08T09:29:24;96116.03;;;28.62;43.97
33454;BME280;39400;49.744;7.012;2023-07-08T09:31:49;96109.38;;;28.76;43.72
33454;BME280;39400;49.744;7.012;2023-07-08T09:34:17;96115.03;;;28.76;43.67
33454;BME280;39400;49.744;7.012;2023-07-08T09:36:45;96107.53;;;28.56;44.83
33454;BME280;39400;49.744;7.012;2023-07-08T09:39:12;96114.47;;;28.50;44.25
33454;BME280;39400;49.744;7.012;2023-07-08T09:41:39;96109.97;;;29.03;44.00
33454;BME280;39400;49.744;7.012;2023-07-08T09:44:14;96112.75;;;29.81;43.68
33454;BME280;39400;49.744;7.012;2023-07-08T09:46:40;96108.84;;;29.96;43.94
33454;BME280;39400;49.744;7.012;2023-07-08T09:49:18;96112.28;;;29.21;44.34
33454;BME280;39400;49.744;7.012;2023-07-08T09:51:45;96101.22;;;29.23;44.90
33454;BME280;39400;49.744;7.012;2023-07-08T09:54:11;96106.09;;;29.23;44.30
33454;BME280;39400;49.744;7.012;2023-07-08T09:56:40;96105.06;;;29.43;43.88
33454;BME280;39400;49.744;7.012;2023-07-08T09:59:11;96109.72;;;29.51;45.43
33454;BME280;39400;49.744;7.012;2023-07-08T10:01:38;96109.34;;;30.11;43.63
33454;BME280;39400;49.744;7.012;2023-07-08T10:04:05;96110.78;;;30.46;43.77
33454;BME280;39400;49.744;7.012;2023-07-08T10:06:32;96107.34;;;29.83;43.96
33454;BME280;39400;49.744;7.012;2023-07-08T10:09:02;96110.50;;;29.63;43.86
33454;BME280;39400;49.744;7.012;2023-07-08T10:11:31;96110.44;;;29.57;43.76
33454;BME280;39400;49.744;7.012;2023-07-08T10:14:04;96118.19;;;29.68;45.00
33454;BME280;39400;49.744;7.012;2023-07-08T10:16:32;96109.88;;;30.04;44.24
33454;BME280;39400;49.744;7.012;2023-07-08T10:18:58;96116.06;;;30.08;43.46
33454;BME280;39400;49.744;7.012;2023-07-08T10:21:38;96114.72;;;30.20;43.52
33454;BME280;39400;49.744;7.012;2023-07-08T10:24:37;96112.66;;;30.26;43.03
33454;BME280;39400;49.744;7.012;2023-07-08T10:27:08;96114.44;;;30.82;43.04
33454;BME280;39400;49.744;7.012;2023-07-08T10:29:50;96113.97;;;30.03;43.56
33454;BME280;39400;49.744;7.012;2023-07-08T10:37:36;96121.69;;;30.83;43.45
33454;BME280;39400;49.744;7.012;2023-07-08T10:40:13;96128.88;;;31.25;44.12
33454;BME280;39400;49.744;7.012;2023-07-08T10:45:18;96125.19;;;30.48;43.93
33454;BME280;39400;49.744;7.012;2023-07-08T10:48:32;96134.13;;;30.69;43.81
33454;BME280;39400;49.744;7.012;2023-07-08T10:56:20;96137.78;;;30.58;43.59
33454;BME280;39400;49.744;7.012;2023-07-08T10:59:04;96131.53;;;30.71;43.60
33454;BME280;39400;49.744;7.012;2023-07-08T11:04:18;96128.94;;;30.78;43.55
33454;BME280;39400;49.744;7.012;2023-07-08T11:06:54;96131.63;;;30.54;43.94
33454;BME280;39400;49.744;7.012;2023-07-08T11:09:25;96134.88;;;30.81;43.61
33454;BME280;39400;49.744;7.012;2023-07-08T11:12:05;96128.16;;;30.78;44.01
33454;BME280;39400;49.744;7.012;2023-07-08T11:17:59;96127.28;;;31.36;43.96
33454;BME280;39400;49.744;7.012;2023-07-08T11:23:28;96133.03;;;31.24;43.28
33454;BME280;39400;49.744;7.012;2023-07-08T11:25:54;96137.88;;;30.94;42.11
33454;BME280;39400;49.744;7.012;2023-07-08T11:28:22;96123.44;;;30.92;41.93
33454;BME280;39400;49.744;7.012;2023-07-08T11:30:51;96123.69;;;31.90;43.09
33454;BME280;39400;49.744;7.012;2023-07-08T11:33:20;96118.53;;;31.88;42.41
33454;BME280;39400;49.744;7.012;2023-07-08T11:35:52;96120.41;;;31.56;41.96
33454;BME280;39400;49.744;7.012;2023-07-08T11:38:20;96118.09;;;31.79;41.64
33454;BME280;39400;49.744;7.012;2023-07-08T11:40:51;96114.94;;;30.86;42.37
33454;BME280;39400;49.744;7.012;2023-07-08T11:43:17;96120.81;;;30.52;42.67
33454;BME280;39400;49.744;7.012;2023-07-08T11:45:44;96123.59;;;30.58;43.32
33454;BME280;39400;49.744;7.012;2023-07-08T11:48:15;96120.47;;;30.67;42.95
33454;BME280;39400;49.744;7.012;2023-07-08T11:50:43;96123.06;;;31.07;42.62
33454;BME280;39400;49.744;7.012;2023-07-08T11:53:37;96116.41;;;30.98;42.08
33454;BME280;39400;49.744;7.012;2023-07-08T11:56:48;96121.78;;;31.73;43.47
33454;BME280;39400;49.744;7.012;2023-07-08T11:59:18;96114.34;;;31.35;40.90
33454;BME280;39400;49.744;7.012;2023-07-08T12:02:00;96129.81;;;31.69;40.59
33454;BME280;39400;49.744;7.012;2023-07-08T12:07:10;96116.16;;;32.41;40.80
33454;BME280;39400;49.744;7.012;2023-07-08T12:09:58;96113.00;;;32.83;39.32
33454;BME280;39400;49.744;7.012;2023-07-08T12:12:35;96112.38;;;32.90;40.24
33454;BME280;39400;49.744;7.012;2023-07-08T12:15:25;96107.75;;;32.06;39.96
33454;BME280;39400;49.744;7.012;2023-07-08T12:17:53;96114.31;;;31.70;40.31
33454;BME280;39400;49.744;7.012;2023-07-08T12:20:34;96112.97;;;32.02;40.97
33454;BME280;39400;49.744;7.012;2023-07-08T12:23:00;96101.22;;;32.54;40.82
33454;BME280;39400;49.744;7.012;2023-07-08T12:25:30;96110.69;;;31.70;41.33
33454;BME280;39400;49.744;7.012;2023-07-08T12:27:55;96110.44;;;31.98;41.06
33454;BME280;39400;49.744;7.012;2023-07-08T12:30:21;96106.94;;;32.54;40.92
33454;BME280;39400;49.744;7.012;2023-07-08T12:32:46;96104.44;;;32.45;40.71
33454;BME280;39400;49.744;7.012;2023-07-08T12:35:22;96106.16;;;32.54;40.09
33454;BME280;39400;49.744;7.012;2023-07-08T12:37:49;96091.09;;;33.42;38.49
33454;BME280;39400;49.744;7.012;2023-07-08T12:40:15;96107.59;;;33.49;38.29
33454;BME280;39400;49.744;7.012;2023-07-08T12:42:40;96095.84;;;33.85;38.26
33454;BME280;39400;49.744;7.012;2023-07-08T12:45:14;96109.66;;;33.81;37.70
33454;BME280;39400;49.744;7.012;2023-07-08T12:47:40;96104.88;;;33.25;38.12
33454;BME280;39400;49.744;7.012;2023-07-08T12:50:09;96101.84;;;32.66;37.50
33454;BME280;39400;49.744;7.012;2023-07-08T12:52:34;96097.19;;;33.20;39.06
33454;BME280;39400;49.744;7.012;2023-07-08T12:54:59;96097.41;;;34.26;38.00
33454;BME280;39400;49.744;7.012;2023-07-08T12:57:25;96106.34;;;33.90;37.64
33454;BME280;39400;49.744;7.012;2023-07-08T12:59:51;96105.22;;;34.12;37.12
33454;BME280;39400;49.744;7.012;2023-07-08T13:02:20;96103.88;;;34.13;37.06
33454;BME280;39400;49.744;7.012;2023-07-08T13:04:50;96106.41;;;34.17;36.98
33454;BME280;39400;49.744;7.012;2023-07-08T13:07:42;96099.16;;;35.03;35.14
33454;BME280;39400;49.744;7.012;2023-07-08T13:10:18;96088.91;;;35.08;36.95
33454;BME280;39400;49.744;7.012;2023-07-08T13:12:45;96091.22;;;33.82;36.31
33454;BME280;39400;49.744;7.012;2023-07-08T13:15:21;96087.47;;;33.74;35.77
33454;BME280;39400;49.744;7.012;2023-07-08T13:17:48;96091.66;;;33.99;36.54
33454;BME280;39400;49.744;7.012;2023-07-08T13:20:15;96090.91;;;32.89;37.97
33454;BME280;39400;49.744;7.012;2023-07-08T13:22:41;96086.78;;;33.54;37.47
33454;BME280;39400;49.744;7.012;2023-07-08T13:25:13;96087.94;;;34.31;37.62
33454;BME280;39400;49.744;7.012;2023-07-08T13:27:39;96083.47;;;34.09;36.76
33454;BME280;39400;49.744;7.012;2023-07-08T13:30:18;96077.16;;;33.97;37.15
33454;BME280;39400;49.744;7.012;2023-07-08T13:32:44;96080.88;;;34.72;36.25
33454;BME280;39400;49.744;7.012;2023-07-08T13:35:41;96080.06;;;34.11;36.69
33454;BME280;39400;49.744;7.012;2023-07-08T13:38:16;96069.16;;;33.82;36.48
33454;BME280;39400;49.744;7.012;2023-07-08T13:40:44;96082.53;;;33.29;37.02
33454;BME280;39400;49.744;7.012;2023-07-08T13:43:10;96079.91;;;32.80;36.99
33454;BME280;39400;49.744;7.012;2023-07-08T13:45:36;96081.47;;;33.77;36.48
33454;BME280;39400;49.744;7.012;2023-07-08T13:48:21;96084.59;;;34.67;36.48
33454;BME280;39400;49.744;7.012;2023-07-08T13:50:51;96084.88;;;35.24;35.52